Flight Track Log - Related Links

Times and Time Zones

All times are in EDT time to prevent confusion due to time zone crossing. See the DAL2369 flight status page for this flight to view local times or setup timezone preferences in your user account.

Time Position Orientation Groundspeed Altitude Reporting Facility
EDT Latitude Longitude Course Direction KTS MPH feet Rate Location/Type
Sun 01:13:44 PM 33.6347 -84.4756 160° South 472 543 2,800  Level Atlanta Center
Sun 01:14:44 PM 33.6303 -84.5528 266° West 318 366 5,500 3,050 Climbing Atlanta Center
Sun 01:15:44 PM 33.5594 -84.5747 194° South 283 326 8,900 2,250 Climbing Atlanta Center
Sun 01:16:00 PM 33.2807 -84.2409 168° South  Level FlightAware Approximate
Sun 01:16:44 PM 33.4778 -84.5842 186° South 300 345 10,000  Level Atlanta Center
Sun 01:17:00 PM 33.1692 -84.2131 168° South  Level FlightAware Approximate
Sun 01:17:44 PM 33.3967 -84.5439 157° South 279 321 11,500  Level Atlanta Center
Sun 01:18:00 PM 33.0577 -84.1852 168° South  Level FlightAware Approximate
Sun 01:18:44 PM 33.3239 -84.4764 142° Southeast 304 350 13,200  Level Atlanta Center
Sun 01:19:00 PM 32.9480 -84.1517 160° South  Level FlightAware Approximate
Sun 01:19:44 PM 33.2364 -84.3964 143° Southeast 364 419 15,000  Level Atlanta Center
Sun 01:20:44 PM 33.1364 -84.3317 152° Southeast 397 457 17,600 2,250 Climbing Atlanta Center
Sun 01:21:44 PM 33.0239 -84.2867 161° South 413 475 19,500 2,000 Climbing Atlanta Center
Sun 01:22:44 PM 32.9092 -84.2294 157° South 439 505 21,600 2,100 Climbing Atlanta Center
Sun 01:23:44 PM 32.7922 -84.1747 159° South 446 513 23,700 2,000 Climbing Atlanta Center
Sun 01:24:44 PM 32.6733 -84.1228 160° South 451 519 25,600 1,700 Climbing Atlanta Center
Sun 01:25:44 PM 32.5564 -84.0683 159° South 451 519 27,100 1,450 Climbing Atlanta Center
Sun 01:26:44 PM 32.4292 -84.0117 159° South 456 525 28,500 1,650 Climbing Atlanta Center
Sun 01:27:44 PM 32.3058 -83.9553 159° South 470 541 30,400 1,850 Climbing Atlanta Center
Sun 01:28:44 PM 32.1828 -83.8989 159° South 475 547 32,200 1,300 Climbing Atlanta Center
Sun 01:29:44 PM 32.0553 -83.8428 160° South 475 547 33,000 400 Climbing Atlanta Center
Sun 01:30:44 PM 31.9358 -83.7861 158° South 476 548 33,000  Level Jacksonville Center
Sun 01:31:44 PM 31.8108 -83.7336 160° South 470 541 33,000 -50 Level Jacksonville Center
Sun 01:32:44 PM 31.6881 -83.6786 159° South 470 541 32,900  Descending Jacksonville Center
Sun 01:33:44 PM 31.5694 -83.6217 158° South 497 572 33,000 50 Climbing Jacksonville Center
Sun 01:34:44 PM 31.4569 -83.5478 151° Southeast 484 557 33,000  Level Jacksonville Center
Sun 01:35:44 PM 31.3469 -83.4617 146° Southeast 473 544 33,000  Level Jacksonville Center
Sun 01:36:44 PM 31.2364 -83.3786 147° Southeast 473 544 33,000 -550 Level Jacksonville Center
Sun 01:37:44 PM 31.1242 -83.2953 148° Southeast 478 550 31,900 -1,150 Descending Jacksonville Center
Sun 01:38:44 PM 31.0114 -83.2125 148° Southeast 478 550 30,700 -1,200 Descending Jacksonville Center
Sun 01:39:44 PM 30.8989 -83.1297 148° Southeast 473 544 29,500 -1,300 Descending Jacksonville Center
Sun 01:40:44 PM 30.7781 -83.0353 146° Southeast 479 551 28,100 -1,250 Descending Jacksonville Center
Sun 01:41:44 PM 30.6653 -82.9531 148° Southeast 479 551 27,000 -1,050 Descending Jacksonville Center
Sun 01:42:44 PM 30.5506 -82.8708 148° Southeast 485 558 26,000 -900 Descending Jacksonville Center
Sun 01:43:44 PM 30.4378 -82.7889 148° Southeast 485 558 25,200 -500 Descending Jacksonville Center
Sun 01:44:44 PM 30.3289 -82.7072 147° Southeast 479 551 25,000 -150 Descending Jacksonville Center
Sun 01:45:44 PM 30.2142 -82.6281 149° Southeast 479 551 24,900 -50 Descending Jacksonville Center
Sun 01:46:44 PM 30.1033 -82.5492 148° Southeast 479 551 24,900  Level Jacksonville Center
Sun 01:47:44 PM 29.9944 -82.4681 147° Southeast 474 545 24,900  Level Jacksonville Center
Sun 01:48:44 PM 29.8711 -82.4158 160° South 474 545 24,900 -650 Level Jacksonville Center
Sun 01:49:44 PM 29.7539 -82.3592 157° South 468 539 23,600 -1,600 Descending Jacksonville Center
Sun 01:50:44 PM 29.6367 -82.3000 156° South 463 533 21,700 -1,750 Descending Jacksonville Center
Sun 01:51:44 PM 29.5236 -82.2433 156° South 453 521 20,100 -1,650 Descending Jacksonville Center
Sun 01:52:44 PM 29.4150 -82.1892 157° South 442 509 18,400 -1,550 Descending Jacksonville Center
Sun 01:53:44 PM 29.3081 -82.1400 158° South 431 496 17,000 -1,450 Descending Jacksonville Center
Sun 01:54:44 PM 29.2014 -82.0861 156° South 425 489 15,500 -1,450 Descending Jacksonville Center
Sun 01:55:44 PM 29.1008 -82.0369 157° South 409 471 14,100 -1,300 Descending Jacksonville Center
Sun 01:56:44 PM 29.0067 -81.9928 158° South 390 449 12,900 -1,000 Descending Jacksonville Center
Sun 01:57:44 PM 28.9333 -81.9556 156° South 365 420 12,100 -950 Descending Jacksonville Center
Sun 01:58:44 PM 28.8703 -81.8967 141° Southeast 311 358 11,000 -1,000 Descending Jacksonville Center
Sun 01:59:44 PM 28.8422 -81.8047 109° East 295 339 10,100 -1,000 Descending Jacksonville Center
Sun 02:00:44 PM 28.8122 -81.7172 111° Southeast 289 333 9,000 -550 Descending Jacksonville Center
Sun 02:01:44 PM 28.7844 -81.6322 110° East 289 333 9,000 -150 Level Jacksonville Center
Sun 02:02:44 PM 28.7503 -81.5617 119° Southeast 270 311 8,700 -850 Descending Jacksonville Center
Sun 02:03:44 PM 28.7183 -81.4936 118° Southeast 250 288 7,300 -850 Descending Jacksonville Center
Sun 02:04:44 PM 28.6842 -81.4300 121° Southeast 245 282 7,000 -824 Descending Jacksonville Center
Sun 02:05:55 PM 28.7000 -81.3333 79° East 227 261 5,500 -1,282 Descending Orlando TRACON
Sun 02:06:55 PM 28.6500 -81.2833 139° Southeast 230 265 4,200 -1,238 Descending Orlando TRACON
Sun 02:08:01 PM 28.5833 -81.2833 180° South 228 262 2,900 -1,182 Descending Orlando TRACON

Login

Don't have an account? Register now (free) for customized features, flight alerts, and more!